createdAt,value
2018-07-04T00:01:21.715Z,95.00
2018-07-04T00:04:08.454Z,95.10
2018-07-04T00:06:55.071Z,95.10
2018-07-04T00:09:41.679Z,94.70
2018-07-04T00:12:27.866Z,95.10
2018-07-04T00:15:14.333Z,95.20
2018-07-04T00:18:00.727Z,95.10
2018-07-04T00:20:47.137Z,95.10
2018-07-04T00:23:33.527Z,95.10
2018-07-04T00:26:19.793Z,95.20
2018-07-04T00:29:06.109Z,95.10
2018-07-04T00:31:52.658Z,95.10
2018-07-04T00:34:38.836Z,94.90
2018-07-04T00:37:25.166Z,95.10
2018-07-04T00:40:12.737Z,95.20
2018-07-04T00:42:59.275Z,95.20
2018-07-04T00:45:45.547Z,95.20
2018-07-04T00:48:31.831Z,95.30
2018-07-04T00:51:18.082Z,95.40
2018-07-04T00:54:04.306Z,95.40
2018-07-04T00:56:52.904Z,95.50
2018-07-04T00:59:40.979Z,95.40
2018-07-04T01:02:27.977Z,95.30
2018-07-04T01:05:14.880Z,95.40
2018-07-04T01:08:01.097Z,95.60
2018-07-04T01:10:47.463Z,95.20
2018-07-04T01:13:34.074Z,95.70
2018-07-04T01:16:20.223Z,95.90
2018-07-04T01:19:06.590Z,95.90
2018-07-04T01:21:53.023Z,96.00
2018-07-04T01:24:39.198Z,96.00
2018-07-04T01:27:25.581Z,96.00
2018-07-04T01:30:11.862Z,96.20
2018-07-04T01:32:58.199Z,96.10
2018-07-04T01:35:44.328Z,96.10
2018-07-04T01:41:11.081Z,96.40
2018-07-04T01:43:57.359Z,96.30
2018-07-04T01:46:43.597Z,96.50
2018-07-04T01:49:30.013Z,96.60
2018-07-04T01:52:16.657Z,96.70
2018-07-04T01:55:02.937Z,96.80
2018-07-04T01:57:49.256Z,96.60
2018-07-04T02:00:35.440Z,96.90
2018-07-04T02:03:21.857Z,97.00
2018-07-04T02:06:08.173Z,97.10
2018-07-04T02:08:54.817Z,97.20
2018-07-04T02:11:41.275Z,97.00
2018-07-04T02:14:27.301Z,97.20
2018-07-04T02:17:13.421Z,97.40
2018-07-04T02:19:59.662Z,97.30
2018-07-04T02:22:45.953Z,97.30
2018-07-04T02:25:32.138Z,97.40
2018-07-04T02:28:18.554Z,97.60
2018-07-04T02:31:04.933Z,97.60
2018-07-04T02:33:51.106Z,97.60
2018-07-04T02:36:37.349Z,97.50
2018-07-04T02:39:23.536Z,97.90
2018-07-04T02:42:09.993Z,97.90
2018-07-04T02:44:56.332Z,98.00
2018-07-04T02:47:42.664Z,97.90
2018-07-04T02:50:28.897Z,98.40
2018-07-04T02:53:15.240Z,98.10
2018-07-04T02:56:01.362Z,98.20
2018-07-04T02:58:47.574Z,98.20
2018-07-04T03:01:34.267Z,98.40
2018-07-04T03:04:20.540Z,98.40
2018-07-04T03:07:06.737Z,98.40
2018-07-04T03:09:52.986Z,98.60
2018-07-04T03:12:39.199Z,98.60
2018-07-04T03:15:25.654Z,98.60
2018-07-04T03:18:11.895Z,98.60
2018-07-04T03:20:58.090Z,98.70
2018-07-04T03:23:44.499Z,98.20
2018-07-04T03:26:30.770Z,98.60
2018-07-04T03:29:16.922Z,98.70
2018-07-04T03:32:03.094Z,98.70
2018-07-04T03:34:49.390Z,98.70
2018-07-04T03:37:35.838Z,98.80
2018-07-04T03:40:22.234Z,98.90
2018-07-04T03:43:08.651Z,98.90
2018-07-04T03:45:54.811Z,98.80
2018-07-04T03:48:40.928Z,98.60
2018-07-04T03:51:27.070Z,98.80
2018-07-04T03:54:13.338Z,98.80
2018-07-04T03:56:59.560Z,98.70
2018-07-04T03:59:45.780Z,98.60
2018-07-04T04:02:31.910Z,98.50
2018-07-04T04:05:18.176Z,98.70
2018-07-04T04:08:04.434Z,98.60
2018-07-04T04:10:50.602Z,98.50
2018-07-04T04:13:36.962Z,97.70
2018-07-04T04:16:23.442Z,98.30
2018-07-04T04:19:09.750Z,98.10
2018-07-04T04:21:56.980Z,98.10
2018-07-04T04:24:43.835Z,98.20
2018-07-04T04:27:30.127Z,98.10
2018-07-04T04:30:16.378Z,98.00
2018-07-04T04:33:02.625Z,97.80
2018-07-04T04:35:48.910Z,97.80
2018-07-04T04:38:35.139Z,97.50
2018-07-04T04:41:21.262Z,97.70
2018-07-04T04:44:07.439Z,97.70
2018-07-04T04:46:53.764Z,97.10
2018-07-04T04:49:40.020Z,97.60
2018-07-04T04:52:26.145Z,97.20
2018-07-04T04:55:12.614Z,97.20
2018-07-04T04:57:58.970Z,97.60
2018-07-04T05:00:45.593Z,97.50
2018-07-04T05:03:31.990Z,97.20
2018-07-04T05:06:18.312Z,97.20
2018-07-04T05:09:04.712Z,97.30
2018-07-04T05:11:53.955Z,97.40
2018-07-04T05:14:40.354Z,97.10
2018-07-04T05:17:26.839Z,97.20
2018-07-04T05:20:13.290Z,97.30
2018-07-04T05:22:59.671Z,96.90
2018-07-04T05:25:45.878Z,97.30
2018-07-04T05:28:32.036Z,96.60
2018-07-04T05:31:19.029Z,97.30
2018-07-04T05:34:05.706Z,97.60
2018-07-04T05:36:51.949Z,97.50
2018-07-04T05:39:38.453Z,97.50
2018-07-04T05:42:24.602Z,97.60
2018-07-04T05:45:10.907Z,97.30
2018-07-04T05:47:57.390Z,97.50
2018-07-04T05:50:43.748Z,97.40
2018-07-04T05:53:30.331Z,97.30
2018-07-04T05:56:16.896Z,97.20
2018-07-04T05:59:03.368Z,97.00
2018-07-04T06:01:49.857Z,97.00
2018-07-04T06:04:36.102Z,97.20
2018-07-04T06:07:22.550Z,96.60
2018-07-04T06:10:09.017Z,96.40
2018-07-04T06:12:55.366Z,96.20
2018-07-04T06:15:41.584Z,96.00
2018-07-04T06:18:28.202Z,96.00
2018-07-04T06:21:14.494Z,95.20
2018-07-04T06:24:00.570Z,94.90
2018-07-04T06:26:46.650Z,94.50
2018-07-04T06:29:32.864Z,94.80
2018-07-04T06:32:19.172Z,95.40
2018-07-04T06:35:05.512Z,95.00
2018-07-04T06:37:40.803Z,94.00
2018-07-04T06:40:08.966Z,94.40
2018-07-04T06:42:37.267Z,94.30
2018-07-04T06:45:05.314Z,94.00
2018-07-04T06:47:33.004Z,94.40
2018-07-04T06:50:00.675Z,94.40
2018-07-04T06:52:28.350Z,94.30
2018-07-04T06:54:56.063Z,94.20
2018-07-04T06:57:23.747Z,93.80
2018-07-04T06:59:51.452Z,93.80
2018-07-04T07:02:20.275Z,94.20
2018-07-04T07:05:01.369Z,93.80
2018-07-04T07:07:47.744Z,93.90
2018-07-04T07:10:34.430Z,93.80
2018-07-04T07:13:21.810Z,93.50
2018-07-04T07:18:48.339Z,93.20
2018-07-04T07:21:34.709Z,93.00
2018-07-04T07:24:21.227Z,93.00
2018-07-04T07:27:07.623Z,93.10
2018-07-04T07:29:54.110Z,92.90
2018-07-04T07:32:40.430Z,93.00
2018-07-04T07:35:26.845Z,92.30
2018-07-04T07:38:13.146Z,92.80
2018-07-04T07:40:59.870Z,92.40
2018-07-04T07:43:46.724Z,92.20
2018-07-04T07:46:34.466Z,91.80
2018-07-04T07:49:20.813Z,91.50
2018-07-04T07:52:07.128Z,90.80
2018-07-04T07:54:53.527Z,91.10
2018-07-04T07:57:39.782Z,91.20
2018-07-04T08:00:26.103Z,91.30
2018-07-04T08:03:12.421Z,91.00
2018-07-04T08:05:58.898Z,90.60
2018-07-04T08:08:49.347Z,90.50
2018-07-04T08:11:36.844Z,90.00
2018-07-04T08:14:27.488Z,90.10
2018-07-04T08:17:14.083Z,90.20
2018-07-04T08:20:01.241Z,89.60
2018-07-04T08:22:47.574Z,90.00
2018-07-04T08:25:33.824Z,89.60
2018-07-04T08:28:20.132Z,88.80
2018-07-04T08:31:10.931Z,88.30
2018-07-04T08:33:57.230Z,87.70
2018-07-04T08:36:44.452Z,88.30
2018-07-04T08:39:30.796Z,85.90
2018-07-04T08:42:17.171Z,85.30
2018-07-04T08:45:03.386Z,86.60
2018-07-04T08:47:49.755Z,85.50
2018-07-04T08:50:36.173Z,86.30
2018-07-04T08:53:22.458Z,86.30
2018-07-04T08:56:08.638Z,85.20
2018-07-04T08:58:54.938Z,85.40
2018-07-04T09:01:41.170Z,84.40
2018-07-04T09:04:27.390Z,85.00
2018-07-04T09:07:13.870Z,83.20
2018-07-04T09:10:00.203Z,83.60
2018-07-04T09:12:46.306Z,80.90
2018-07-04T09:15:32.526Z,81.70
2018-07-04T09:20:59.114Z,79.20
2018-07-04T09:23:45.896Z,78.50
2018-07-04T09:26:31.974Z,80.80
2018-07-04T09:29:18.213Z,82.20
2018-07-04T09:32:04.615Z,82.10
2018-07-04T09:34:50.874Z,80.40
2018-07-04T09:37:37.251Z,80.00
2018-07-04T09:40:23.440Z,80.00
2018-07-04T09:43:10.027Z,81.00
2018-07-04T09:45:56.159Z,81.80
2018-07-04T09:48:42.569Z,80.10
2018-07-04T09:51:28.799Z,79.20
2018-07-04T09:54:15.146Z,80.40
2018-07-04T09:57:01.610Z,81.20
2018-07-04T09:59:48.095Z,78.80
2018-07-04T10:02:35.529Z,78.80
2018-07-04T10:05:21.790Z,78.60
2018-07-04T10:08:07.911Z,80.00
2018-07-04T10:10:54.296Z,77.60
2018-07-04T10:13:40.775Z,78.30
2018-07-04T10:16:27.128Z,78.20
2018-07-04T10:19:13.200Z,77.60
2018-07-04T10:21:59.302Z,77.80
2018-07-04T10:24:45.496Z,76.80
2018-07-04T10:27:31.763Z,77.90
2018-07-04T10:30:17.955Z,77.70
2018-07-04T10:33:04.351Z,76.90
2018-07-04T10:35:51.207Z,76.70
2018-07-04T10:38:37.256Z,76.40
2018-07-04T10:41:23.790Z,77.50
2018-07-04T10:44:10.055Z,76.00
2018-07-04T10:46:56.471Z,76.90
2018-07-04T10:49:42.699Z,76.80
2018-07-04T10:52:28.955Z,75.90
2018-07-04T10:55:15.283Z,75.20
2018-07-04T10:58:01.542Z,74.20
2018-07-04T11:00:47.680Z,74.70
2018-07-04T11:03:33.861Z,73.90
2018-07-04T11:06:20.027Z,73.30
2018-07-04T11:09:06.316Z,72.90
2018-07-04T11:11:52.585Z,74.00
2018-07-04T11:14:38.917Z,73.50
2018-07-04T11:17:25.217Z,74.40
2018-07-04T11:20:11.427Z,73.70
2018-07-04T11:22:57.475Z,74.10
2018-07-04T11:25:43.907Z,72.20
2018-07-04T11:28:30.025Z,73.20
2018-07-04T11:33:56.358Z,73.10
2018-07-04T11:36:42.467Z,72.60
2018-07-04T11:39:28.730Z,72.60
2018-07-04T11:42:15.235Z,73.10
2018-07-04T11:45:01.383Z,73.20
2018-07-04T11:47:35.425Z,73.30
2018-07-04T11:50:03.170Z,72.10
2018-07-04T11:54:58.872Z,72.50
2018-07-04T11:57:26.563Z,73.20
2018-07-04T12:02:22.110Z,73.30
2018-07-04T12:05:02.028Z,74.30
2018-07-04T12:07:35.971Z,73.30
2018-07-04T12:12:31.626Z,73.80
2018-07-04T12:14:59.329Z,75.20
2018-07-04T12:17:26.987Z,75.10
2018-07-04T12:19:54.654Z,75.80
2018-07-04T12:22:22.719Z,74.90
2018-07-04T12:24:50.402Z,74.40
2018-07-04T12:29:45.910Z,76.30
2018-07-04T12:32:13.643Z,76.10
2018-07-04T12:34:41.330Z,75.50
2018-07-04T12:37:09.086Z,75.40
2018-07-04T12:39:36.747Z,75.30
2018-07-04T12:42:04.503Z,75.70
2018-07-04T12:44:32.182Z,75.80
2018-07-04T12:47:00.371Z,75.70
2018-07-04T12:49:28.942Z,75.80
2018-07-04T12:51:56.616Z,75.40
2018-07-04T12:54:29.571Z,75.30
2018-07-04T12:57:09.598Z,75.40
2018-07-04T12:59:55.817Z,75.40
2018-07-04T13:02:42.026Z,75.00
2018-07-04T13:05:28.318Z,75.40
2018-07-04T13:08:14.555Z,75.00
2018-07-04T13:11:00.922Z,75.40
2018-07-04T13:13:47.083Z,74.90
2018-07-04T13:16:33.462Z,74.90
2018-07-04T13:19:19.609Z,74.70
2018-07-04T13:22:05.742Z,75.20
2018-07-04T13:24:51.761Z,74.80
2018-07-04T13:27:38.029Z,74.90
2018-07-04T13:30:24.407Z,74.90
2018-07-04T13:33:10.678Z,74.90
2018-07-04T13:35:56.734Z,74.80
2018-07-04T13:38:42.868Z,74.70
2018-07-04T13:41:29.066Z,74.70
2018-07-04T13:44:15.228Z,74.90
2018-07-04T13:47:01.536Z,74.50
2018-07-04T13:49:47.853Z,74.40
2018-07-04T13:52:34.654Z,74.30
2018-07-04T13:55:21.166Z,74.40
2018-07-04T13:58:07.375Z,74.40
2018-07-04T14:00:53.363Z,74.30
2018-07-04T14:04:09.312Z,71.70
2018-07-04T14:06:55.362Z,71.20
2018-07-04T14:09:41.765Z,71.60
2018-07-04T14:12:28.235Z,71.00
2018-07-04T14:15:14.495Z,70.50
2018-07-04T14:18:00.695Z,70.70
2018-07-04T14:20:46.930Z,70.80
2018-07-04T14:23:33.238Z,70.40
2018-07-04T14:26:19.550Z,70.20
2018-07-04T14:29:05.887Z,70.90
2018-07-04T14:31:52.629Z,70.30
2018-07-04T14:34:39.858Z,71.50
2018-07-04T14:37:26.162Z,70.50
2018-07-04T14:40:12.298Z,70.60
2018-07-04T14:42:58.435Z,69.70
2018-07-04T14:45:44.807Z,69.00
2018-07-04T14:48:30.939Z,69.40
2018-07-04T14:51:17.622Z,69.30
2018-07-04T14:54:03.968Z,69.50
2018-07-04T14:56:50.253Z,69.60
2018-07-04T14:59:36.416Z,68.90
2018-07-04T15:02:22.502Z,68.20
2018-07-04T15:05:08.754Z,69.90
2018-07-04T15:07:55.202Z,69.80
2018-07-04T15:10:41.345Z,70.40
2018-07-04T15:13:27.458Z,69.80
2018-07-04T15:16:13.647Z,69.30
2018-07-04T15:18:59.983Z,69.60
2018-07-04T15:21:46.456Z,70.10
2018-07-04T15:24:32.779Z,68.30
2018-07-04T15:27:19.003Z,67.40
2018-07-04T15:30:05.270Z,65.90
2018-07-04T15:35:31.670Z,65.30
2018-07-04T15:38:18.093Z,66.60
2018-07-04T15:41:04.343Z,67.00
2018-07-04T15:43:50.585Z,67.50
2018-07-04T15:46:36.879Z,67.30
2018-07-04T15:52:03.482Z,68.00
2018-07-04T15:54:49.698Z,68.20
2018-07-04T15:57:36.559Z,68.50
2018-07-04T16:00:23.300Z,67.90
2018-07-04T16:03:09.454Z,68.90
2018-07-04T16:05:55.775Z,68.70
2018-07-04T16:08:42.372Z,69.40
2018-07-04T16:11:28.472Z,69.80
2018-07-04T16:14:14.712Z,70.00
2018-07-04T16:17:00.870Z,70.40
2018-07-04T16:19:46.976Z,70.90
2018-07-04T16:22:33.363Z,69.80
2018-07-04T16:25:19.655Z,69.20
2018-07-04T16:28:05.760Z,69.80
2018-07-04T16:30:52.205Z,70.30
2018-07-04T16:33:38.471Z,70.50
2018-07-04T16:36:24.641Z,71.30
2018-07-04T16:39:10.890Z,70.70
2018-07-04T16:41:57.215Z,71.40
2018-07-04T16:44:43.699Z,71.40
2018-07-04T16:47:29.778Z,71.40
2018-07-04T16:50:15.821Z,71.20
2018-07-04T16:53:02.019Z,71.00
2018-07-04T16:55:48.219Z,68.20
2018-07-04T16:58:34.376Z,65.30
2018-07-04T17:01:20.542Z,65.30
2018-07-04T17:04:06.551Z,62.90
2018-07-04T17:06:52.690Z,62.60
2018-07-04T17:09:38.805Z,62.80
2018-07-04T17:12:24.900Z,62.90
2018-07-04T17:15:11.235Z,64.20
2018-07-04T17:17:57.647Z,65.00
2018-07-04T17:20:43.928Z,67.30
2018-07-04T17:23:30.414Z,67.20
2018-07-04T17:26:16.683Z,67.90
2018-07-04T17:29:03.090Z,68.60
2018-07-04T17:31:49.302Z,69.70
2018-07-04T17:34:35.704Z,69.60
2018-07-04T17:37:22.101Z,68.40
2018-07-04T17:40:08.287Z,68.80
2018-07-04T17:42:54.479Z,67.80
2018-07-04T17:45:40.658Z,69.60
2018-07-04T17:48:26.779Z,70.00
2018-07-04T17:51:12.886Z,71.30
2018-07-04T17:54:14.168Z,72.00
2018-07-04T17:57:00.249Z,72.40
2018-07-04T17:59:46.760Z,72.60
2018-07-04T18:02:32.905Z,73.70
2018-07-04T18:05:19.074Z,74.60
2018-07-04T18:08:05.155Z,76.10
2018-07-04T18:10:51.432Z,77.60
2018-07-04T18:13:37.825Z,77.60
2018-07-04T18:16:24.118Z,77.40
2018-07-04T18:19:10.510Z,75.70
2018-07-04T18:21:56.690Z,74.80
2018-07-04T18:24:43.364Z,71.90
2018-07-04T18:27:29.510Z,70.40
2018-07-04T18:32:56.086Z,68.90
2018-07-04T18:35:42.321Z,67.60
2018-07-04T18:38:28.502Z,67.30
2018-07-04T18:41:14.846Z,66.90
2018-07-04T18:44:00.981Z,67.80
2018-07-04T18:46:47.310Z,68.00
2018-07-04T18:49:33.550Z,67.80
2018-07-04T18:52:19.704Z,68.10
2018-07-04T18:55:06.035Z,71.20
2018-07-04T18:57:52.190Z,73.50
2018-07-04T19:03:18.846Z,75.50
2018-07-04T19:06:05.243Z,76.90
2018-07-04T19:08:51.456Z,77.10
2018-07-04T19:11:37.786Z,78.20
2018-07-04T19:14:23.922Z,79.90
2018-07-04T19:17:10.288Z,80.60
2018-07-04T19:19:56.590Z,81.60
2018-07-04T19:22:42.751Z,82.80
2018-07-04T19:28:09.335Z,84.00
2018-07-04T19:30:55.370Z,85.60
2018-07-04T19:33:41.587Z,86.90
2018-07-04T19:36:31.141Z,88.00
2018-07-04T19:39:17.170Z,88.50
2018-07-04T19:42:03.341Z,89.00
2018-07-04T19:44:49.891Z,89.20
2018-07-04T19:47:36.228Z,89.40
2018-07-04T19:50:22.467Z,90.00
2018-07-04T19:53:08.614Z,90.00
2018-07-04T19:55:55.008Z,90.30
2018-07-04T19:58:41.407Z,90.40
2018-07-04T20:01:27.555Z,90.40
2018-07-04T20:04:13.837Z,90.60
2018-07-04T20:09:40.314Z,90.70
2018-07-04T20:12:26.483Z,90.60
2018-07-04T20:15:12.646Z,90.80
2018-07-04T20:17:58.928Z,91.00
2018-07-04T20:20:45.364Z,91.20
2018-07-04T20:23:31.562Z,91.40
2018-07-04T20:26:36.550Z,91.60
2018-07-04T20:29:22.898Z,91.70
2018-07-04T20:32:09.282Z,91.80
2018-07-04T20:34:55.506Z,91.90
2018-07-04T20:37:41.921Z,92.20
2018-07-04T20:40:28.050Z,92.40
2018-07-04T20:43:14.781Z,92.60
2018-07-04T20:46:01.071Z,92.60
2018-07-04T20:48:47.351Z,92.60
2018-07-04T20:51:33.602Z,92.80
2018-07-04T20:54:20.074Z,92.90
2018-07-04T20:57:06.278Z,93.10
2018-07-04T20:59:52.654Z,93.10
2018-07-04T21:02:38.904Z,93.00
2018-07-04T21:08:52.764Z,92.50
2018-07-04T21:11:39.276Z,92.50
2018-07-04T21:14:25.641Z,92.50
2018-07-04T21:17:12.082Z,92.40
2018-07-04T21:19:58.426Z,92.30
2018-07-04T21:22:44.543Z,92.10
2018-07-04T21:25:30.858Z,92.10
2018-07-04T21:28:17.403Z,92.00
2018-07-04T21:31:03.782Z,92.20
2018-07-04T21:33:50.181Z,92.20
2018-07-04T21:36:36.450Z,92.20
2018-07-04T21:42:03.274Z,92.40
2018-07-04T21:44:49.674Z,92.40
2018-07-04T21:47:36.074Z,92.40
2018-07-04T21:50:22.409Z,92.50
2018-07-04T21:53:09.108Z,92.50
2018-07-04T21:56:00.734Z,92.60
2018-07-04T21:58:47.989Z,92.60
2018-07-04T22:01:34.542Z,92.70
2018-07-04T22:07:57.224Z,92.60
2018-07-04T22:10:43.438Z,92.80
2018-07-04T22:13:31.294Z,92.80
2018-07-04T22:16:17.559Z,93.30
2018-07-04T22:19:05.072Z,93.70
2018-07-04T22:21:51.639Z,94.10
2018-07-04T22:24:38.550Z,94.20
2018-07-04T22:27:24.846Z,94.20
2018-07-04T22:30:11.286Z,94.10
2018-07-04T22:35:45.120Z,94.10
2018-07-04T22:38:31.747Z,94.30
2018-07-04T22:41:20.426Z,94.50
2018-07-04T22:44:09.786Z,94.50
2018-07-04T22:46:56.175Z,94.50
2018-07-04T22:49:42.803Z,94.70
2018-07-04T22:52:29.387Z,94.60
2018-07-04T22:55:15.465Z,94.60
2018-07-04T22:58:01.779Z,94.70
2018-07-04T23:00:48.087Z,94.90
2018-07-04T23:03:34.250Z,95.20
2018-07-04T23:06:23.030Z,95.20
2018-07-04T23:09:09.434Z,95.20
2018-07-04T23:11:55.958Z,95.10
2018-07-04T23:14:42.354Z,95.50
2018-07-04T23:17:28.483Z,95.50
2018-07-04T23:20:14.949Z,95.40
2018-07-04T23:23:01.159Z,95.40
2018-07-04T23:25:47.531Z,95.40
2018-07-04T23:28:33.750Z,95.50
2018-07-04T23:31:20.007Z,96.00
2018-07-04T23:34:06.071Z,95.70
2018-07-04T23:39:32.584Z,96.10
2018-07-04T23:42:18.750Z,96.00
2018-07-04T23:45:05.093Z,96.00
2018-07-04T23:47:51.442Z,96.00
2018-07-04T23:50:37.874Z,96.20
2018-07-04T23:53:24.252Z,96.30
2018-07-04T23:56:10.621Z,96.40
